createdAt,value
2018-10-06T00:00:20.938Z,7.97
2018-10-06T00:02:49.907Z,7.87
2018-10-06T00:05:18.941Z,7.47
2018-10-06T00:07:48.373Z,8.20
2018-10-06T00:10:17.320Z,7.77
2018-10-06T00:12:46.223Z,7.90
2018-10-06T00:15:15.139Z,7.97
2018-10-06T00:17:43.944Z,7.23
2018-10-06T00:20:12.883Z,8.13
2018-10-06T00:22:41.719Z,7.93
2018-10-06T00:25:10.598Z,7.43
2018-10-06T00:27:39.453Z,7.60
2018-10-06T00:30:08.455Z,6.83
2018-10-06T00:32:37.343Z,8.17
2018-10-06T00:35:06.307Z,7.60
2018-10-06T00:37:35.130Z,7.23
2018-10-06T00:40:04.127Z,7.67
2018-10-06T00:42:32.981Z,8.37
2018-10-06T00:45:08.049Z,7.30
2018-10-06T00:47:36.891Z,7.23
2018-10-06T00:50:05.807Z,7.03
2018-10-06T00:52:34.627Z,6.93
2018-10-06T00:55:03.617Z,7.30
2018-10-06T00:57:32.441Z,6.80
2018-10-06T01:00:01.423Z,7.20
2018-10-06T01:02:30.325Z,6.80
2018-10-06T01:04:59.162Z,8.10
2018-10-06T01:07:28.153Z,7.00
2018-10-06T01:09:58.085Z,7.50
2018-10-06T01:12:27.509Z,7.47
2018-10-06T01:14:56.403Z,7.23
2018-10-06T01:17:25.331Z,7.23
2018-10-06T01:19:54.236Z,7.13
2018-10-06T01:22:23.143Z,6.57
2018-10-06T01:24:52.012Z,7.53
2018-10-06T01:27:20.935Z,7.17
2018-10-06T01:29:49.774Z,7.00
2018-10-06T01:32:18.654Z,8.13
2018-10-06T01:34:47.480Z,8.30
2018-10-06T01:37:16.383Z,7.10
2018-10-06T01:39:45.279Z,7.87
2018-10-06T01:42:14.164Z,7.50
2018-10-06T01:44:43.089Z,7.43
2018-10-06T01:47:12.015Z,7.03
2018-10-06T01:49:40.853Z,7.67
2018-10-06T01:52:09.741Z,7.00
2018-10-06T01:54:38.602Z,7.13
2018-10-06T01:57:07.873Z,7.00
2018-10-06T01:59:36.719Z,6.70
2018-10-06T02:02:05.811Z,6.63
2018-10-06T02:04:34.699Z,6.97
2018-10-06T02:07:03.532Z,7.00
2018-10-06T02:09:32.469Z,6.60
2018-10-06T02:12:01.380Z,6.93
2018-10-06T02:14:30.272Z,6.80
2018-10-06T02:16:59.085Z,7.53
2018-10-06T02:19:28.945Z,7.40
2018-10-06T02:21:57.890Z,7.40
2018-10-06T02:24:26.718Z,6.60
2018-10-06T02:26:55.538Z,7.57
2018-10-06T02:29:24.356Z,7.43
2018-10-06T02:31:53.213Z,7.87
2018-10-06T02:34:22.434Z,7.17
2018-10-06T02:36:51.357Z,8.00
2018-10-06T02:39:20.170Z,7.53
2018-10-06T02:41:48.989Z,7.70
2018-10-06T02:44:17.860Z,7.20
2018-10-06T02:46:46.789Z,7.83
2018-10-06T02:49:15.665Z,7.63
2018-10-06T02:51:44.460Z,7.73
2018-10-06T02:54:13.376Z,7.63
2018-10-06T02:56:42.273Z,7.67
2018-10-06T02:59:11.439Z,8.17
2018-10-06T03:01:40.332Z,8.13
2018-10-06T03:04:09.179Z,7.40
2018-10-06T03:06:38.031Z,7.73
2018-10-06T03:09:08.283Z,6.90
2018-10-06T03:11:37.281Z,7.30
2018-10-06T03:14:06.347Z,8.27
2018-10-06T03:16:35.242Z,6.20
2018-10-06T03:19:04.078Z,7.73
2018-10-06T03:21:32.922Z,7.40
2018-10-06T03:24:01.806Z,7.50
2018-10-06T03:26:30.670Z,8.37
2018-10-06T03:28:59.469Z,7.40
2018-10-06T03:31:28.364Z,7.77
2018-10-06T03:33:57.175Z,8.23
2018-10-06T03:36:26.096Z,7.17
2018-10-06T03:38:54.951Z,6.03
2018-10-06T03:41:23.849Z,7.23
2018-10-06T03:43:52.661Z,6.87
2018-10-06T03:46:21.625Z,7.87
2018-10-06T03:48:50.524Z,6.93
2018-10-06T03:51:19.424Z,6.83
2018-10-06T03:53:48.305Z,7.97
2018-10-06T03:56:17.220Z,6.73
2018-10-06T03:58:46.092Z,6.20
2018-10-06T04:01:15.007Z,6.27
2018-10-06T04:03:43.894Z,6.37
2018-10-06T04:06:12.716Z,7.33
2018-10-06T04:08:41.592Z,6.30
2018-10-06T04:11:10.462Z,6.37
2018-10-06T04:13:41.280Z,6.07
2018-10-06T04:16:10.416Z,6.63
2018-10-06T04:18:39.573Z,6.07
2018-10-06T04:21:08.456Z,6.50
2018-10-06T04:23:37.336Z,5.87
2018-10-06T04:26:06.702Z,6.23
2018-10-06T04:28:35.644Z,6.60
2018-10-06T04:31:04.527Z,7.30
2018-10-06T04:33:33.441Z,7.03
2018-10-06T04:36:02.298Z,6.33
2018-10-06T04:38:31.436Z,6.73
2018-10-06T04:41:00.416Z,6.40
2018-10-06T04:43:35.392Z,7.13
2018-10-06T04:46:04.246Z,6.53
2018-10-06T04:48:33.144Z,8.00
2018-10-06T04:51:02.011Z,7.53
2018-10-06T04:53:31.127Z,6.97
2018-10-06T04:56:00.198Z,8.00
2018-10-06T04:58:29.108Z,7.37
2018-10-06T05:00:57.982Z,6.47
2018-10-06T05:03:26.800Z,6.80
2018-10-06T05:05:55.688Z,7.47
2018-10-06T05:08:24.528Z,6.33
2018-10-06T05:10:53.393Z,6.53
2018-10-06T05:13:22.442Z,6.73
2018-10-06T05:15:51.319Z,6.80
2018-10-06T05:18:20.136Z,6.43
2018-10-06T05:20:48.959Z,6.97
2018-10-06T05:23:17.843Z,6.60
2018-10-06T05:25:46.807Z,5.77
2018-10-06T05:28:15.838Z,5.73
2018-10-06T05:30:44.699Z,6.10
2018-10-06T05:33:13.575Z,6.40
2018-10-06T05:35:42.431Z,7.10
2018-10-06T05:38:11.457Z,7.07
2018-10-06T05:40:41.100Z,7.07
2018-10-06T05:43:09.977Z,7.53
2018-10-06T05:45:38.877Z,7.47
2018-10-06T05:48:07.720Z,7.23
2018-10-06T05:50:36.727Z,6.80
2018-10-06T05:53:05.641Z,6.00
2018-10-06T05:55:34.525Z,6.23
2018-10-06T05:58:03.354Z,5.87
2018-10-06T06:00:32.347Z,5.90
2018-10-06T06:03:01.283Z,5.70
2018-10-06T06:05:30.161Z,6.03
2018-10-06T06:07:59.031Z,6.57
2018-10-06T06:10:27.868Z,6.53
2018-10-06T06:12:56.768Z,5.97
2018-10-06T06:15:25.739Z,5.77
2018-10-06T06:17:54.589Z,5.50
2018-10-06T06:20:23.457Z,7.33
2018-10-06T06:22:52.655Z,6.73
2018-10-06T06:25:21.484Z,7.13
2018-10-06T06:27:50.405Z,8.17
2018-10-06T06:30:19.280Z,8.40
2018-10-06T06:32:48.163Z,8.87
2018-10-06T06:35:17.034Z,9.13
2018-10-06T06:37:45.977Z,8.67
2018-10-06T06:40:14.871Z,8.87
2018-10-06T06:42:43.798Z,9.77
2018-10-06T06:45:13.531Z,9.90
2018-10-06T06:47:42.393Z,10.27
2018-10-06T06:50:11.240Z,10.03
2018-10-06T06:52:40.231Z,10.47
2018-10-06T06:55:09.075Z,9.77
2018-10-06T06:57:38.220Z,9.23
2018-10-06T07:00:07.271Z,9.87
2018-10-06T07:02:36.110Z,10.03
2018-10-06T07:05:05.149Z,10.50
2018-10-06T07:07:34.103Z,9.37
2018-10-06T07:10:03.013Z,9.37
2018-10-06T07:12:31.984Z,10.30
2018-10-06T07:15:00.856Z,10.50
2018-10-06T07:17:29.750Z,10.27
2018-10-06T07:19:59.335Z,10.97
2018-10-06T07:22:29.326Z,11.77
2018-10-06T07:24:58.270Z,10.97
2018-10-06T07:27:27.130Z,12.43
2018-10-06T07:29:56.072Z,10.60
2018-10-06T07:32:25.244Z,11.47
2018-10-06T07:34:54.371Z,12.23
2018-10-06T07:37:24.887Z,11.90
2018-10-06T07:39:55.114Z,11.60
2018-10-06T07:42:26.378Z,11.07
2018-10-06T07:44:56.962Z,12.03
2018-10-06T07:47:27.158Z,11.00
2018-10-06T07:49:57.377Z,11.93
2018-10-06T07:52:27.407Z,11.63
2018-10-06T07:54:57.430Z,10.87
2018-10-06T07:57:27.757Z,11.90
2018-10-06T07:59:59.541Z,12.10
2018-10-06T08:02:30.405Z,12.00
2018-10-06T08:05:00.511Z,11.80
2018-10-06T08:07:31.117Z,12.57
2018-10-06T08:10:01.496Z,13.13
2018-10-06T08:12:32.424Z,14.80
2018-10-06T08:15:02.692Z,13.27
2018-10-06T08:17:33.382Z,12.97
2018-10-06T08:20:04.151Z,12.53
2018-10-06T08:22:34.361Z,14.53
2018-10-06T08:25:03.326Z,13.47
2018-10-06T08:27:32.244Z,14.53
2018-10-06T08:30:01.104Z,15.43
2018-10-06T08:32:29.996Z,16.77
2018-10-06T08:34:58.893Z,17.37
2018-10-06T08:37:27.806Z,17.03
2018-10-06T08:39:56.634Z,19.47
2018-10-06T08:42:25.540Z,19.20
2018-10-06T08:44:54.413Z,19.40
2018-10-06T08:47:24.516Z,18.73
2018-10-06T08:49:53.472Z,17.50
2018-10-06T08:52:22.573Z,18.90
2018-10-06T08:54:52.009Z,19.20
2018-10-06T08:57:20.912Z,19.57
2018-10-06T08:59:49.813Z,18.27
2018-10-06T09:02:18.721Z,20.07
2018-10-06T09:04:47.554Z,18.80
2018-10-06T09:07:16.396Z,18.10
2018-10-06T09:09:45.327Z,18.30
2018-10-06T09:12:14.185Z,19.20
2018-10-06T09:14:43.085Z,17.27
2018-10-06T09:17:11.966Z,17.30
2018-10-06T09:19:40.877Z,18.07
2018-10-06T09:22:09.720Z,19.83
2018-10-06T09:24:38.680Z,17.73
2018-10-06T09:27:08.174Z,17.53
2018-10-06T09:29:37.145Z,17.93
2018-10-06T09:32:06.095Z,18.87
2018-10-06T09:34:35.198Z,18.50
2018-10-06T09:37:04.268Z,18.67
2018-10-06T09:39:33.168Z,17.73
2018-10-06T09:42:02.094Z,18.03
2018-10-06T09:44:30.930Z,17.43
2018-10-06T09:46:59.830Z,18.20
2018-10-06T09:49:29.023Z,16.97
2018-10-06T09:51:58.032Z,16.73
2018-10-06T09:54:26.998Z,18.13
2018-10-06T09:56:56.845Z,17.30
2018-10-06T09:59:26.303Z,18.90
2018-10-06T10:02:01.624Z,18.00
2018-10-06T10:04:30.559Z,17.70
2018-10-06T10:06:59.523Z,17.63
2018-10-06T10:09:28.861Z,17.23
2018-10-06T10:11:57.813Z,17.30
2018-10-06T10:14:26.803Z,17.97
2018-10-06T10:16:55.826Z,17.50
2018-10-06T10:19:25.129Z,15.13
2018-10-06T10:21:54.285Z,16.23
2018-10-06T10:24:23.194Z,17.37
2018-10-06T10:26:52.201Z,16.93
2018-10-06T10:29:21.224Z,15.67
2018-10-06T10:31:50.604Z,15.97
2018-10-06T10:34:19.605Z,17.47
2018-10-06T10:36:48.532Z,16.63
2018-10-06T10:39:17.385Z,17.77
2018-10-06T10:41:46.239Z,17.07
2018-10-06T10:44:15.231Z,15.70
2018-10-06T10:46:44.151Z,15.63
2018-10-06T10:49:13.425Z,14.57
2018-10-06T10:51:42.368Z,15.70
2018-10-06T10:54:11.216Z,15.63
2018-10-06T10:56:40.181Z,15.83
2018-10-06T10:59:09.082Z,15.47
2018-10-06T11:01:37.985Z,15.70
2018-10-06T11:04:06.891Z,14.03
2018-10-06T11:06:35.711Z,14.23
2018-10-06T11:09:05.888Z,14.33
2018-10-06T11:11:34.736Z,12.23
2018-10-06T11:14:03.907Z,12.23
2018-10-06T11:16:32.768Z,11.73
2018-10-06T11:19:01.747Z,11.93
2018-10-06T11:21:30.626Z,10.57
2018-10-06T11:23:59.516Z,10.83
2018-10-06T11:26:28.474Z,10.53
2018-10-06T11:28:57.335Z,10.63
2018-10-06T11:31:26.247Z,11.73
2018-10-06T11:33:55.134Z,10.70
2018-10-06T11:36:24.226Z,10.23
2018-10-06T11:38:53.115Z,11.33
2018-10-06T11:41:21.917Z,9.97
2018-10-06T11:43:50.845Z,9.87
2018-10-06T11:46:19.716Z,9.83
2018-10-06T11:48:48.594Z,10.03
2018-10-06T11:51:17.639Z,9.90
2018-10-06T11:53:46.541Z,9.60
2018-10-06T11:56:15.773Z,9.23
2018-10-06T11:58:45.534Z,9.37
2018-10-06T12:01:15.125Z,10.37
2018-10-06T12:03:44.109Z,9.37
2018-10-06T12:06:12.981Z,8.07
2018-10-06T12:08:41.983Z,9.53
2018-10-06T12:11:10.823Z,8.60
2018-10-06T12:13:39.708Z,9.53
2018-10-06T12:16:08.631Z,9.07
2018-10-06T12:18:37.448Z,8.40
2018-10-06T12:21:06.367Z,8.50
2018-10-06T12:23:35.277Z,9.13
2018-10-06T12:26:04.229Z,8.67
2018-10-06T12:28:33.111Z,7.73
2018-10-06T12:31:02.659Z,7.97
2018-10-06T12:33:31.508Z,8.50
2018-10-06T12:36:00.585Z,8.40
2018-10-06T12:38:29.372Z,8.30
2018-10-06T12:40:58.415Z,7.57
2018-10-06T12:43:27.272Z,7.23
2018-10-06T12:45:56.213Z,7.83
2018-10-06T12:48:25.047Z,7.80
2018-10-06T12:50:53.933Z,7.07
2018-10-06T12:53:23.148Z,7.47
2018-10-06T12:55:51.987Z,7.43
2018-10-06T12:58:20.818Z,8.23
2018-10-06T13:00:49.722Z,7.43
2018-10-06T13:03:18.576Z,8.10
2018-10-06T13:05:47.502Z,7.60
2018-10-06T13:08:16.348Z,7.10
2018-10-06T13:10:45.166Z,7.83
2018-10-06T13:13:14.090Z,6.83
2018-10-06T13:15:43.299Z,6.77
2018-10-06T13:18:12.481Z,7.43
2018-10-06T13:20:41.328Z,6.70
2018-10-06T13:23:10.314Z,6.77
2018-10-06T13:25:39.127Z,6.30
2018-10-06T13:28:08.238Z,6.00
2018-10-06T13:30:37.099Z,6.10
2018-10-06T13:33:06.056Z,7.00
2018-10-06T13:35:34.891Z,6.57
2018-10-06T13:38:03.785Z,6.50
2018-10-06T13:40:32.619Z,6.93
2018-10-06T13:43:01.549Z,6.23
2018-10-06T13:45:36.414Z,6.70
2018-10-06T13:48:05.616Z,6.93
2018-10-06T13:50:34.423Z,8.30
2018-10-06T13:53:03.385Z,7.17
2018-10-06T13:55:32.200Z,7.27
2018-10-06T13:58:01.165Z,6.60
2018-10-06T14:00:30.035Z,6.40
2018-10-06T14:02:59.277Z,6.20
2018-10-06T14:05:28.235Z,6.20
2018-10-06T14:07:57.110Z,6.67
2018-10-06T14:10:25.985Z,6.13
2018-10-06T14:12:54.938Z,6.50
2018-10-06T14:15:23.798Z,6.80
2018-10-06T14:17:52.789Z,6.83
2018-10-06T14:20:21.861Z,6.40
2018-10-06T14:22:50.655Z,6.10
2018-10-06T14:25:19.704Z,5.97
2018-10-06T14:27:50.105Z,6.67
2018-10-06T14:30:19.120Z,6.27
2018-10-06T14:32:48.256Z,5.60
2018-10-06T14:35:17.769Z,5.73
2018-10-06T14:37:46.782Z,5.43
2018-10-06T14:40:15.784Z,5.67
2018-10-06T14:42:44.800Z,5.97
2018-10-06T14:45:13.628Z,5.80
2018-10-06T14:47:42.985Z,5.83
2018-10-06T14:50:12.017Z,5.53
2018-10-06T14:52:40.891Z,5.73
2018-10-06T14:55:10.050Z,5.10
2018-10-06T14:57:39.183Z,5.57
2018-10-06T15:00:08.955Z,5.40
2018-10-06T15:02:38.089Z,5.47
2018-10-06T15:05:06.999Z,5.33
2018-10-06T15:07:36.285Z,4.77
2018-10-06T15:10:05.604Z,5.40
2018-10-06T15:12:34.488Z,5.43
2018-10-06T15:15:03.475Z,4.43
2018-10-06T15:17:32.341Z,5.33
2018-10-06T15:20:01.356Z,4.73
2018-10-06T15:22:30.367Z,4.33
2018-10-06T15:25:00.038Z,4.43
2018-10-06T15:27:28.910Z,4.30
2018-10-06T15:29:57.739Z,4.57
2018-10-06T15:32:26.659Z,5.10
2018-10-06T15:34:55.514Z,4.53
2018-10-06T15:37:24.480Z,5.43
2018-10-06T15:39:53.460Z,5.37
2018-10-06T15:42:22.329Z,5.23
2018-10-06T15:44:51.287Z,4.73
2018-10-06T15:47:20.179Z,5.27
2018-10-06T15:49:49.001Z,5.17
2018-10-06T15:52:17.906Z,6.17
2018-10-06T15:54:46.703Z,6.93
2018-10-06T15:57:15.641Z,6.53
2018-10-06T15:59:44.464Z,6.03
2018-10-06T16:02:13.505Z,6.23
2018-10-06T16:04:42.388Z,5.07
2018-10-06T16:07:11.198Z,4.53
2018-10-06T16:09:40.071Z,5.10
2018-10-06T16:12:08.921Z,5.37
2018-10-06T16:14:37.847Z,5.47
2018-10-06T16:17:06.789Z,4.53
2018-10-06T16:19:35.671Z,4.90
2018-10-06T16:22:04.657Z,5.57
2018-10-06T16:24:33.504Z,5.87
2018-10-06T16:27:02.304Z,6.50
2018-10-06T16:29:31.166Z,6.27
2018-10-06T16:31:59.932Z,5.90
2018-10-06T16:34:28.913Z,6.33
2018-10-06T16:36:57.742Z,6.17
2018-10-06T16:39:26.569Z,6.10
2018-10-06T16:41:55.401Z,7.60
2018-10-06T16:44:24.271Z,7.50
2018-10-06T16:46:53.224Z,7.33
2018-10-06T16:49:22.406Z,8.40
2018-10-06T16:51:51.362Z,8.57
2018-10-06T16:54:20.241Z,8.40
2018-10-06T16:56:49.043Z,8.07
2018-10-06T16:59:17.884Z,8.57
2018-10-06T17:01:46.805Z,7.87
2018-10-06T17:04:15.638Z,6.93
2018-10-06T17:06:45.305Z,6.07
2018-10-06T17:09:14.176Z,8.00
2018-10-06T17:11:43.237Z,7.30
2018-10-06T17:14:12.140Z,7.73
2018-10-06T17:16:40.995Z,7.57
2018-10-06T17:19:09.847Z,8.53
2018-10-06T17:21:38.980Z,8.13
2018-10-06T17:24:08.005Z,8.27
2018-10-06T17:26:36.884Z,8.13
2018-10-06T17:29:05.751Z,8.43
2018-10-06T17:31:34.604Z,8.50
2018-10-06T17:34:03.514Z,9.23
2018-10-06T17:36:32.363Z,10.33
2018-10-06T17:39:01.240Z,9.23
2018-10-06T17:41:30.120Z,8.87
2018-10-06T17:44:00.015Z,8.60
2018-10-06T17:46:29.041Z,9.70
2018-10-06T17:48:57.856Z,9.23
2018-10-06T17:51:26.689Z,9.07
2018-10-06T17:53:55.484Z,8.53
2018-10-06T17:56:24.302Z,9.87
2018-10-06T17:58:53.260Z,9.80
2018-10-06T18:01:22.106Z,9.47
2018-10-06T18:03:50.986Z,9.50
2018-10-06T18:06:19.813Z,9.50
2018-10-06T18:08:48.764Z,9.57
2018-10-06T18:11:17.946Z,8.40
2018-10-06T18:13:47.100Z,10.07
2018-10-06T18:16:16.226Z,8.47
2018-10-06T18:18:45.286Z,8.70
2018-10-06T18:21:14.226Z,8.83
2018-10-06T18:23:43.727Z,9.47
2018-10-06T18:26:12.863Z,8.70
2018-10-06T18:28:42.649Z,9.47
2018-10-06T18:31:11.462Z,9.07
2018-10-06T18:33:40.818Z,10.40
2018-10-06T18:36:10.064Z,10.27
2018-10-06T18:38:39.192Z,10.73
2018-10-06T18:41:08.669Z,10.47
2018-10-06T18:43:37.564Z,10.60
2018-10-06T18:46:06.423Z,9.80
2018-10-06T18:48:35.439Z,10.30
2018-10-06T18:51:04.270Z,10.57
2018-10-06T18:53:33.555Z,10.03
2018-10-06T18:56:02.392Z,9.50
2018-10-06T18:58:31.479Z,8.67
2018-10-06T19:01:00.447Z,9.33
2018-10-06T19:03:29.756Z,9.33
2018-10-06T19:05:58.563Z,9.10
2018-10-06T19:08:27.388Z,9.60
2018-10-06T19:10:56.874Z,9.10
2018-10-06T19:13:25.885Z,9.40
2018-10-06T19:15:54.758Z,9.00
2018-10-06T19:18:23.776Z,9.00
2018-10-06T19:20:52.640Z,8.10
2018-10-06T19:23:21.550Z,9.17
2018-10-06T19:25:51.091Z,9.27
2018-10-06T19:28:19.847Z,9.27
2018-10-06T19:30:48.993Z,9.80
2018-10-06T19:33:18.102Z,9.40
2018-10-06T19:35:46.944Z,9.77
2018-10-06T19:38:16.011Z,9.90
2018-10-06T19:40:44.893Z,9.87
2018-10-06T19:43:14.513Z,9.67
2018-10-06T19:45:43.448Z,9.37
2018-10-06T19:48:12.252Z,9.80
2018-10-06T19:50:41.461Z,9.70
2018-10-06T19:53:10.310Z,9.77
2018-10-06T19:55:39.354Z,10.13
2018-10-06T19:58:08.522Z,10.43
2018-10-06T20:00:37.364Z,10.10
2018-10-06T20:03:06.466Z,11.07
2018-10-06T20:05:35.600Z,10.90
2018-10-06T20:08:04.548Z,11.73
2018-10-06T20:10:33.357Z,11.40
2018-10-06T20:13:02.561Z,11.37
2018-10-06T20:15:31.863Z,12.97
2018-10-06T20:18:00.685Z,13.33
2018-10-06T20:20:29.513Z,13.67
2018-10-06T20:22:58.351Z,14.70
2018-10-06T20:25:27.175Z,14.10
2018-10-06T20:27:56.191Z,15.07
2018-10-06T20:30:25.641Z,14.90
2018-10-06T20:33:01.423Z,15.20
2018-10-06T20:35:30.229Z,15.03
2018-10-06T20:37:59.221Z,16.40
2018-10-06T20:40:28.030Z,15.53
2018-10-06T20:42:56.930Z,15.97
2018-10-06T20:45:31.688Z,17.40
2018-10-06T20:48:00.657Z,17.93
2018-10-06T20:50:29.493Z,18.47
2018-10-06T20:52:58.568Z,18.10
2018-10-06T20:55:27.539Z,18.57
2018-10-06T20:57:56.428Z,20.00
2018-10-06T21:00:25.403Z,20.60
2018-10-06T21:02:54.289Z,20.87
2018-10-06T21:05:23.109Z,20.90
2018-10-06T21:07:52.372Z,20.67
2018-10-06T21:10:21.218Z,21.93
2018-10-06T21:12:50.111Z,21.90
2018-10-06T21:15:19.101Z,23.30
2018-10-06T21:17:48.023Z,23.33
2018-10-06T21:20:16.879Z,24.47
2018-10-06T21:22:45.671Z,24.83
2018-10-06T21:25:14.607Z,25.60
2018-10-06T21:27:43.460Z,26.10
2018-10-06T21:30:12.319Z,26.93
2018-10-06T21:32:41.290Z,26.93
2018-10-06T21:35:10.247Z,27.47
2018-10-06T21:37:39.315Z,28.27
2018-10-06T21:40:08.247Z,29.90
2018-10-06T21:42:37.053Z,30.23
2018-10-06T21:45:06.389Z,27.37
2018-10-06T21:47:35.199Z,31.27
2018-10-06T21:50:04.219Z,31.07
2018-10-06T21:52:33.015Z,31.00
2018-10-06T21:55:01.900Z,31.87
2018-10-06T21:57:30.752Z,30.23
2018-10-06T21:59:59.662Z,31.60
2018-10-06T22:02:28.539Z,31.53
2018-10-06T22:04:57.368Z,32.13
2018-10-06T22:07:26.205Z,34.00
2018-10-06T22:09:55.059Z,33.63
2018-10-06T22:12:23.972Z,33.07
2018-10-06T22:14:52.916Z,33.87
2018-10-06T22:17:21.773Z,35.00
2018-10-06T22:19:50.703Z,33.23
2018-10-06T22:22:19.565Z,35.50
2018-10-06T22:24:48.752Z,38.60
2018-10-06T22:27:17.752Z,38.57
2018-10-06T22:29:46.627Z,38.60
2018-10-06T22:32:15.485Z,38.53
2018-10-06T22:34:44.329Z,38.33
2018-10-06T22:37:13.157Z,42.27
2018-10-06T22:39:42.133Z,40.57
2018-10-06T22:42:10.957Z,40.80
2018-10-06T22:44:39.837Z,41.10
2018-10-06T22:47:08.980Z,42.00
2018-10-06T22:49:37.844Z,41.33
2018-10-06T22:52:06.997Z,42.67
2018-10-06T22:54:35.837Z,41.83
2018-10-06T22:57:04.739Z,42.07
2018-10-06T22:59:33.602Z,43.17
2018-10-06T23:02:02.445Z,44.57
2018-10-06T23:04:31.668Z,43.10
2018-10-06T23:07:00.751Z,44.47
2018-10-06T23:09:29.610Z,44.13
2018-10-06T23:11:58.443Z,48.03
2018-10-06T23:14:27.347Z,49.73
2018-10-06T23:16:56.315Z,44.67
2018-10-06T23:19:25.207Z,50.00
2018-10-06T23:21:54.060Z,43.87
2018-10-06T23:24:22.958Z,50.20
2018-10-06T23:26:51.814Z,45.97
2018-10-06T23:29:20.791Z,27.60
2018-10-06T23:31:49.636Z,33.10
2018-10-06T23:34:18.488Z,31.93
2018-10-06T23:36:47.284Z,31.20
2018-10-06T23:39:16.129Z,32.70
2018-10-06T23:41:45.007Z,31.20
2018-10-06T23:44:13.851Z,30.90
2018-10-06T23:46:42.673Z,30.70
2018-10-06T23:49:11.575Z,29.47
2018-10-06T23:51:40.419Z,28.80
2018-10-06T23:54:09.737Z,28.93
2018-10-06T23:56:38.603Z,25.90
2018-10-06T23:59:07.668Z,27.87
